EWG6931 EDDS-EDDH
Flight info
| Callsign | EWG6931 |
|---|---|
| Flight time | 0h 59m |
| Altitude | 39000 |
| Route | OKIBA4H/07 OKIBA N851 RIMKI Z99 LOHRE DCT MASEK DCT ELNAT/N0433F380 P605 NOLGO NOLGO6A |
| Aircraft | A20N/M-SDE2E3FGHIRWXY/LB1 |
Departure
| Time | 2026-04-26 10:10 |
|---|---|
| Airport | Stuttgart Airport (EDDS) |
Arrival
| Time | 2026-04-26 11:10 |
|---|---|
| Airport | Hamburg Helmut Schmidt Airport (EDDH) |
| Time | Latitude | Longitude | Altitude | Speed | Heading |
|---|---|---|---|---|---|
| 2026-04-26 09:46 | 48.68813 | 9.19790 | 1288 ft | 0 kts | 164° |
| 2026-04-26 10:06 | 48.68808 | 9.19792 | 1285 ft | 2 kts | 164° |
| 2026-04-26 10:06 | 48.68782 | 9.19803 | 1286 ft | 5 kts | 164° |
| 2026-04-26 10:07 | 48.68760 | 9.19846 | 1285 ft | 6 kts | 81° |
| 2026-04-26 10:07 | 48.68764 | 9.19921 | 1285 ft | 9 kts | 105° |
| 2026-04-26 10:07 | 48.68730 | 9.19967 | 1287 ft | 0 kts | 166° |
| 2026-04-26 10:08 | 48.68728 | 9.19967 | 1285 ft | 0 kts | 166° |
| 2026-04-26 10:08 | 48.68710 | 9.19977 | 1289 ft | 7 kts | 159° |
| 2026-04-26 10:09 | 48.68641 | 9.20011 | 1287 ft | 13 kts | 162° |
| 2026-04-26 10:09 | 48.68595 | 9.20116 | 1285 ft | 13 kts | 70° |
| 2026-04-26 10:09 | 48.68619 | 9.20231 | 1287 ft | 0 kts | 77° |
| 2026-04-26 10:10 | 48.68650 | 9.20390 | 1286 ft | 47 kts | 78° |
| 2026-04-26 10:10 | 48.68774 | 9.21193 | 1289 ft | 107 kts | 71° |
| 2026-04-26 10:10 | 48.69035 | 9.22497 | 1345 ft | 150 kts | 73° |
| 2026-04-26 10:10 | 48.69327 | 9.24028 | 1931 ft | 149 kts | 75° |
| 2026-04-26 10:11 | 48.69567 | 9.25538 | 2614 ft | 147 kts | 76° |
| 2026-04-26 10:11 | 48.69799 | 9.27059 | 3216 ft | 152 kts | 76° |
| 2026-04-26 10:11 | 48.70083 | 9.28695 | 3569 ft | 170 kts | 74° |
| 2026-04-26 10:11 | 48.70433 | 9.30515 | 3959 ft | 190 kts | 73° |
| 2026-04-26 10:12 | 48.70835 | 9.32541 | 4436 ft | 211 kts | 73° |
| 2026-04-26 10:12 | 48.71282 | 9.34785 | 4889 ft | 235 kts | 73° |
| 2026-04-26 10:12 | 48.71778 | 9.37293 | 5187 ft | 262 kts | 73° |
| 2026-04-26 10:12 | 48.72296 | 9.39943 | 5220 ft | 267 kts | 73° |
| 2026-04-26 10:13 | 48.72820 | 9.42642 | 5221 ft | 267 kts | 73° |
| 2026-04-26 10:13 | 48.73341 | 9.45344 | 5230 ft | 267 kts | 73° |
| 2026-04-26 10:13 | 48.73858 | 9.48041 | 5230 ft | 267 kts | 73° |
| 2026-04-26 10:13 | 48.74677 | 9.50543 | 5221 ft | 267 kts | 49° |
| 2026-04-26 10:14 | 48.76157 | 9.52204 | 5221 ft | 267 kts | 21° |
| 2026-04-26 10:14 | 48.77984 | 9.52629 | 5364 ft | 269 kts | 355° |
| 2026-04-26 10:14 | 48.79854 | 9.52339 | 6078 ft | 270 kts | 354° |
| 2026-04-26 10:14 | 48.81706 | 9.52050 | 7230 ft | 268 kts | 355° |
| 2026-04-26 10:15 | 48.83575 | 9.51810 | 8172 ft | 271 kts | 355° |
| 2026-04-26 10:15 | 48.85471 | 9.51596 | 9135 ft | 274 kts | 356° |
| 2026-04-26 10:15 | 48.87391 | 9.51392 | 10054 ft | 279 kts | 356° |
| 2026-04-26 10:15 | 48.89359 | 9.51185 | 10726 ft | 292 kts | 356° |
| 2026-04-26 10:16 | 48.91438 | 9.50966 | 11042 ft | 315 kts | 356° |
| 2026-04-26 10:16 | 48.93696 | 9.50695 | 11467 ft | 332 kts | 353° |
| 2026-04-26 10:16 | 48.95980 | 9.50045 | 12265 ft | 337 kts | 345° |
| 2026-04-26 10:16 | 48.98209 | 9.48879 | 13048 ft | 341 kts | 335° |
| 2026-04-26 10:17 | 49.00372 | 9.47327 | 13832 ft | 347 kts | 334° |
| 2026-04-26 10:17 | 49.02549 | 9.45693 | 14545 ft | 351 kts | 333° |
| 2026-04-26 10:17 | 49.04750 | 9.44031 | 15260 ft | 355 kts | 333° |
| 2026-04-26 10:17 | 49.06982 | 9.42357 | 15954 ft | 359 kts | 333° |
| 2026-04-26 10:18 | 49.09237 | 9.40678 | 16649 ft | 363 kts | 333° |
| 2026-04-26 10:18 | 49.11529 | 9.38983 | 17333 ft | 368 kts | 333° |
| 2026-04-26 10:18 | 49.13813 | 9.37299 | 17992 ft | 372 kts | 333° |
| 2026-04-26 10:18 | 49.16156 | 9.35572 | 18662 ft | 376 kts | 333° |
| 2026-04-26 10:19 | 49.18522 | 9.33829 | 19266 ft | 379 kts | 334° |
| 2026-04-26 10:19 | 49.20984 | 9.32334 | 19847 ft | 384 kts | 341° |
| 2026-04-26 10:19 | 49.23601 | 9.31398 | 20432 ft | 389 kts | 350° |
| 2026-04-26 10:19 | 49.26318 | 9.31062 | 21012 ft | 394 kts | 356° |
| 2026-04-26 10:20 | 49.29071 | 9.30914 | 21577 ft | 398 kts | 356° |
| 2026-04-26 10:20 | 49.30915 | 9.30824 | 21956 ft | 401 kts | 356° |
| 2026-04-26 10:20 | 49.34666 | 9.30629 | 22706 ft | 406 kts | 357° |
| 2026-04-26 10:20 | 49.37471 | 9.30791 | 23269 ft | 411 kts | 3° |
| 2026-04-26 10:21 | 49.40331 | 9.31199 | 23818 ft | 415 kts | 3° |
| 2026-04-26 10:21 | 49.43216 | 9.31637 | 24290 ft | 419 kts | 3° |
| 2026-04-26 10:21 | 49.46125 | 9.32083 | 24756 ft | 422 kts | 3° |
| 2026-04-26 10:21 | 49.49052 | 9.32527 | 25212 ft | 425 kts | 3° |
| 2026-04-26 10:22 | 49.52012 | 9.32971 | 25668 ft | 428 kts | 3° |
| 2026-04-26 10:22 | 49.54987 | 9.33412 | 26102 ft | 431 kts | 3° |
| 2026-04-26 10:22 | 49.57983 | 9.33856 | 26530 ft | 434 kts | 3° |
| 2026-04-26 10:22 | 49.60961 | 9.34296 | 26949 ft | 437 kts | 3° |
| 2026-04-26 10:23 | 49.63977 | 9.34741 | 27353 ft | 440 kts | 3° |
| 2026-04-26 10:23 | 49.67034 | 9.35194 | 27756 ft | 443 kts | 3° |
| 2026-04-26 10:23 | 49.70109 | 9.35650 | 28161 ft | 446 kts | 3° |
| 2026-04-26 10:23 | 49.73206 | 9.36113 | 28543 ft | 448 kts | 4° |
| 2026-04-26 10:24 | 49.76303 | 9.36846 | 28908 ft | 453 kts | 10° |
| 2026-04-26 10:24 | 49.79339 | 9.37984 | 29258 ft | 456 kts | 12° |
| 2026-04-26 10:24 | 49.82421 | 9.39202 | 29629 ft | 458 kts | 12° |
| 2026-04-26 10:24 | 49.85522 | 9.40430 | 29991 ft | 461 kts | 12° |
| 2026-04-26 10:25 | 49.88636 | 9.41653 | 30313 ft | 464 kts | 12° |
| 2026-04-26 10:25 | 49.91775 | 9.42875 | 30623 ft | 466 kts | 12° |
| 2026-04-26 10:25 | 49.94734 | 9.44022 | 30928 ft | 467 kts | 12° |
| 2026-04-26 10:25 | 49.97897 | 9.45244 | 31258 ft | 469 kts | 12° |
| 2026-04-26 10:26 | 50.01061 | 9.46466 | 31611 ft | 469 kts | 12° |
| 2026-04-26 10:26 | 50.04222 | 9.47689 | 32043 ft | 468 kts | 12° |
| 2026-04-26 10:26 | 50.07394 | 9.48767 | 32459 ft | 465 kts | 6° |
| 2026-04-26 10:26 | 50.10553 | 9.49382 | 32869 ft | 463 kts | 3° |
| 2026-04-26 10:27 | 50.13747 | 9.49897 | 33273 ft | 461 kts | 3° |
| 2026-04-26 10:27 | 50.16938 | 9.50400 | 33680 ft | 460 kts | 3° |
| 2026-04-26 10:27 | 50.20118 | 9.50908 | 34072 ft | 459 kts | 3° |
| 2026-04-26 10:27 | 50.23287 | 9.51425 | 34425 ft | 458 kts | 3° |
| 2026-04-26 10:28 | 50.26452 | 9.51950 | 34748 ft | 457 kts | 4° |
| 2026-04-26 10:28 | 50.29612 | 9.52476 | 34973 ft | 458 kts | 4° |
| 2026-04-26 10:28 | 50.32775 | 9.53006 | 35278 ft | 456 kts | 4° |
| 2026-04-26 10:28 | 50.35932 | 9.53539 | 35584 ft | 455 kts | 4° |
| 2026-04-26 10:29 | 50.39032 | 9.54063 | 35870 ft | 454 kts | 4° |
| 2026-04-26 10:29 | 50.42171 | 9.54595 | 36148 ft | 453 kts | 4° |
| 2026-04-26 10:29 | 50.45296 | 9.55125 | 36411 ft | 452 kts | 4° |
| 2026-04-26 10:29 | 50.48423 | 9.55656 | 36664 ft | 451 kts | 4° |
| 2026-04-26 10:30 | 50.51540 | 9.56182 | 36924 ft | 450 kts | 4° |
| 2026-04-26 10:30 | 50.54654 | 9.56708 | 37160 ft | 449 kts | 4° |
| 2026-04-26 10:30 | 50.57762 | 9.57234 | 37398 ft | 449 kts | 4° |
| 2026-04-26 10:30 | 50.60861 | 9.57762 | 37620 ft | 448 kts | 4° |
| 2026-04-26 10:31 | 50.63919 | 9.58283 | 37855 ft | 447 kts | 4° |
| 2026-04-26 10:31 | 50.67009 | 9.58812 | 38064 ft | 447 kts | 4° |
| 2026-04-26 10:31 | 50.70094 | 9.59340 | 38265 ft | 446 kts | 4° |
| 2026-04-26 10:31 | 50.73174 | 9.59869 | 38471 ft | 445 kts | 4° |
| 2026-04-26 10:32 | 50.76253 | 9.60424 | 38667 ft | 445 kts | 5° |
| 2026-04-26 10:32 | 50.79323 | 9.61014 | 38858 ft | 444 kts | 5° |
| 2026-04-26 10:32 | 50.82389 | 9.61617 | 39017 ft | 444 kts | 5° |
| 2026-04-26 10:32 | 50.85447 | 9.62220 | 39140 ft | 443 kts | 5° |
| 2026-04-26 10:33 | 50.88511 | 9.62823 | 39263 ft | 443 kts | 5° |
| 2026-04-26 10:33 | 50.91531 | 9.63415 | 39294 ft | 443 kts | 5° |
| 2026-04-26 10:33 | 50.97641 | 9.64610 | 39300 ft | 441 kts | 5° |
| 2026-04-26 10:34 | 51.03733 | 9.65800 | 39300 ft | 441 kts | 5° |
| 2026-04-26 10:34 | 51.09828 | 9.66994 | 39300 ft | 441 kts | 5° |
| 2026-04-26 10:35 | 51.15881 | 9.68183 | 39303 ft | 441 kts | 5° |
| 2026-04-26 10:35 | 51.21972 | 9.69377 | 39308 ft | 441 kts | 4° |
| 2026-04-26 10:36 | 51.28066 | 9.70395 | 39309 ft | 440 kts | 3° |
| 2026-04-26 10:36 | 51.34160 | 9.71353 | 39322 ft | 440 kts | 3° |
| 2026-04-26 10:37 | 51.40222 | 9.72323 | 38989 ft | 436 kts | 4° |
| 2026-04-26 10:37 | 51.43196 | 9.72806 | 38399 ft | 435 kts | 3° |
| 2026-04-26 10:37 | 51.46217 | 9.73297 | 37628 ft | 437 kts | 3° |
| 2026-04-26 10:38 | 51.49249 | 9.73804 | 36810 ft | 440 kts | 4° |
| 2026-04-26 10:38 | 51.52307 | 9.74362 | 36002 ft | 444 kts | 4° |
| 2026-04-26 10:38 | 51.55381 | 9.74945 | 35212 ft | 447 kts | 5° |
| 2026-04-26 10:38 | 51.58479 | 9.75538 | 34432 ft | 450 kts | 5° |
| 2026-04-26 10:39 | 51.61600 | 9.76135 | 33600 ft | 452 kts | 5° |
| 2026-04-26 10:39 | 51.64725 | 9.76733 | 32848 ft | 452 kts | 4° |
| 2026-04-26 10:39 | 51.67794 | 9.77323 | 32441 ft | 448 kts | 4° |
| 2026-04-26 10:39 | 51.70907 | 9.77919 | 32329 ft | 456 kts | 4° |
| 2026-04-26 10:40 | 51.77241 | 9.79127 | 32318 ft | 457 kts | 4° |
| 2026-04-26 10:40 | 51.83555 | 9.80335 | 32323 ft | 458 kts | 4° |
| 2026-04-26 10:41 | 51.89877 | 9.81550 | 32328 ft | 456 kts | 4° |
| 2026-04-26 10:41 | 51.96173 | 9.82777 | 32328 ft | 456 kts | 4° |
| 2026-04-26 10:42 | 52.02470 | 9.84003 | 32326 ft | 456 kts | 4° |
| 2026-04-26 10:42 | 52.08729 | 9.85221 | 32330 ft | 456 kts | 4° |
| 2026-04-26 10:43 | 52.15024 | 9.86451 | 32321 ft | 454 kts | 4° |
| 2026-04-26 10:43 | 52.18153 | 9.87066 | 32010 ft | 452 kts | 4° |
| 2026-04-26 10:43 | 52.21276 | 9.87680 | 31412 ft | 452 kts | 4° |
| 2026-04-26 10:44 | 52.24390 | 9.88321 | 30702 ft | 453 kts | 6° |
| 2026-04-26 10:44 | 52.27474 | 9.89383 | 30052 ft | 452 kts | 12° |
| 2026-04-26 10:44 | 52.30490 | 9.90706 | 29447 ft | 446 kts | 12° |
| 2026-04-26 10:44 | 52.33428 | 9.92022 | 28856 ft | 441 kts | 12° |
| 2026-04-26 10:45 | 52.36371 | 9.93342 | 28317 ft | 435 kts | 12° |
| 2026-04-26 10:45 | 52.39274 | 9.94643 | 27752 ft | 430 kts | 12° |
| 2026-04-26 10:45 | 52.42148 | 9.95922 | 27164 ft | 426 kts | 12° |
| 2026-04-26 10:45 | 52.44992 | 9.97183 | 26605 ft | 421 kts | 12° |
| 2026-04-26 10:46 | 52.47808 | 9.98428 | 26062 ft | 417 kts | 12° |
| 2026-04-26 10:46 | 52.50591 | 9.99659 | 25534 ft | 412 kts | 12° |
| 2026-04-26 10:46 | 52.53345 | 10.00878 | 25013 ft | 408 kts | 12° |
| 2026-04-26 10:46 | 52.56066 | 10.02085 | 24500 ft | 403 kts | 12° |
| 2026-04-26 10:47 | 52.58765 | 10.03285 | 24011 ft | 399 kts | 11° |
| 2026-04-26 10:47 | 52.61380 | 10.04455 | 23541 ft | 392 kts | 11° |
| 2026-04-26 10:47 | 52.64001 | 10.05630 | 22931 ft | 389 kts | 11° |
| 2026-04-26 10:47 | 52.66599 | 10.06794 | 22331 ft | 385 kts | 11° |
| 2026-04-26 10:48 | 52.69176 | 10.07950 | 21751 ft | 382 kts | 11° |
| 2026-04-26 10:48 | 52.71732 | 10.09097 | 21172 ft | 379 kts | 11° |
| 2026-04-26 10:48 | 52.74261 | 10.10233 | 20583 ft | 376 kts | 11° |
| 2026-04-26 10:48 | 52.76782 | 10.11296 | 20029 ft | 371 kts | 8° |
| 2026-04-26 10:49 | 52.79314 | 10.11916 | 19483 ft | 365 kts | 1° |
| 2026-04-26 10:49 | 52.81805 | 10.12064 | 18995 ft | 360 kts | 357° |
| 2026-04-26 10:49 | 52.84301 | 10.12114 | 18644 ft | 359 kts | 357° |
| 2026-04-26 10:49 | 52.86810 | 10.12154 | 18239 ft | 362 kts | 357° |
| 2026-04-26 10:50 | 52.89320 | 10.12206 | 17839 ft | 360 kts | 358° |
| 2026-04-26 10:50 | 52.90971 | 10.12248 | 17563 ft | 356 kts | 358° |
| 2026-04-26 10:50 | 52.94264 | 10.12346 | 17063 ft | 353 kts | 358° |
| 2026-04-26 10:50 | 52.96700 | 10.12423 | 16677 ft | 351 kts | 358° |
| 2026-04-26 10:51 | 52.99141 | 10.12504 | 16290 ft | 348 kts | 358° |
| 2026-04-26 10:51 | 53.03952 | 10.12663 | 15547 ft | 344 kts | 358° |
| 2026-04-26 10:51 | 53.06335 | 10.12739 | 15175 ft | 341 kts | 358° |
| 2026-04-26 10:52 | 53.08669 | 10.12814 | 14820 ft | 339 kts | 358° |
| 2026-04-26 10:52 | 53.11023 | 10.12892 | 14468 ft | 337 kts | 358° |
| 2026-04-26 10:52 | 53.13362 | 10.12971 | 14113 ft | 335 kts | 358° |
| 2026-04-26 10:52 | 53.15685 | 10.13049 | 13715 ft | 333 kts | 358° |
| 2026-04-26 10:53 | 53.17993 | 10.13126 | 13320 ft | 331 kts | 358° |
| 2026-04-26 10:53 | 53.20280 | 10.13202 | 12905 ft | 327 kts | 358° |
| 2026-04-26 10:53 | 53.22551 | 10.13275 | 12401 ft | 325 kts | 359° |
| 2026-04-26 10:54 | 53.27034 | 10.13418 | 11405 ft | 320 kts | 359° |
| 2026-04-26 10:54 | 53.29241 | 10.13489 | 11086 ft | 314 kts | 359° |
| 2026-04-26 10:54 | 53.31415 | 10.13559 | 10992 ft | 319 kts | 359° |
| 2026-04-26 10:54 | 53.33640 | 10.13630 | 10978 ft | 321 kts | 359° |
| 2026-04-26 10:55 | 53.35878 | 10.13704 | 10975 ft | 321 kts | 359° |
| 2026-04-26 10:55 | 53.38104 | 10.13638 | 10967 ft | 319 kts | 349° |
| 2026-04-26 10:55 | 53.40151 | 10.12406 | 10918 ft | 310 kts | 328° |
| 2026-04-26 10:55 | 53.41259 | 10.10948 | 10858 ft | 303 kts | 315° |
| 2026-04-26 10:56 | 53.43065 | 10.07482 | 10723 ft | 287 kts | 311° |
| 2026-04-26 10:56 | 53.44316 | 10.05034 | 10627 ft | 274 kts | 312° |
| 2026-04-26 10:56 | 53.45544 | 10.02690 | 10528 ft | 261 kts | 313° |
| 2026-04-26 10:56 | 53.46728 | 10.00483 | 10411 ft | 247 kts | 314° |
| 2026-04-26 10:57 | 53.47855 | 9.98408 | 10202 ft | 237 kts | 314° |
| 2026-04-26 10:57 | 53.48783 | 9.96145 | 9835 ft | 239 kts | 293° |
| 2026-04-26 10:57 | 53.48976 | 9.93378 | 9433 ft | 245 kts | 264° |
| 2026-04-26 10:57 | 53.48305 | 9.90738 | 9054 ft | 252 kts | 236° |
| 2026-04-26 10:58 | 53.47166 | 9.88495 | 8731 ft | 252 kts | 232° |
| 2026-04-26 10:58 | 53.45995 | 9.86322 | 8405 ft | 251 kts | 231° |
| 2026-04-26 10:58 | 53.44840 | 9.84138 | 8087 ft | 249 kts | 232° |
| 2026-04-26 10:58 | 53.43718 | 9.81946 | 7767 ft | 247 kts | 233° |
| 2026-04-26 10:59 | 53.42642 | 9.79800 | 7582 ft | 241 kts | 233° |
| 2026-04-26 10:59 | 53.41578 | 9.77647 | 7293 ft | 239 kts | 233° |
| 2026-04-26 10:59 | 53.40518 | 9.75503 | 6962 ft | 238 kts | 233° |
| 2026-04-26 10:59 | 53.39489 | 9.73415 | 6756 ft | 232 kts | 233° |
| 2026-04-26 11:00 | 53.38464 | 9.71343 | 6604 ft | 222 kts | 233° |
| 2026-04-26 11:00 | 53.37504 | 9.69409 | 6514 ft | 210 kts | 233° |
| 2026-04-26 11:00 | 53.36608 | 9.67618 | 6415 ft | 195 kts | 233° |
| 2026-04-26 11:00 | 53.35739 | 9.65874 | 6058 ft | 194 kts | 233° |
| 2026-04-26 11:01 | 53.34875 | 9.64136 | 5677 ft | 194 kts | 233° |
| 2026-04-26 11:01 | 53.34015 | 9.62405 | 5310 ft | 193 kts | 233° |
| 2026-04-26 11:01 | 53.33178 | 9.60671 | 4967 ft | 190 kts | 240° |
| 2026-04-26 11:01 | 53.32854 | 9.58623 | 4589 ft | 187 kts | 277° |
| 2026-04-26 11:02 | 53.33381 | 9.56689 | 4180 ft | 186 kts | 317° |
| 2026-04-26 11:02 | 53.34560 | 9.55978 | 3753 ft | 186 kts | 9° |
| 2026-04-26 11:02 | 53.35758 | 9.56760 | 3380 ft | 186 kts | 30° |
| 2026-04-26 11:02 | 53.36874 | 9.57833 | 3050 ft | 182 kts | 32° |
| 2026-04-26 11:03 | 53.37970 | 9.58949 | 2994 ft | 187 kts | 32° |
| 2026-04-26 11:03 | 53.39060 | 9.60106 | 2988 ft | 184 kts | 33° |
| 2026-04-26 11:03 | 53.40177 | 9.61337 | 2997 ft | 204 kts | 34° |
| 2026-04-26 11:03 | 53.41345 | 9.62701 | 2991 ft | 205 kts | 36° |
| 2026-04-26 11:04 | 53.42491 | 9.64102 | 2981 ft | 211 kts | 37° |
| 2026-04-26 11:04 | 53.43724 | 9.65673 | 2995 ft | 234 kts | 38° |
| 2026-04-26 11:04 | 53.45037 | 9.67443 | 2994 ft | 254 kts | 40° |
| 2026-04-26 11:04 | 53.46396 | 9.69366 | 2994 ft | 252 kts | 41° |
| 2026-04-26 11:05 | 53.47682 | 9.71235 | 2994 ft | 237 kts | 40° |
| 2026-04-26 11:05 | 53.48931 | 9.72911 | 2993 ft | 224 kts | 38° |
| 2026-04-26 11:05 | 53.50191 | 9.74518 | 2996 ft | 227 kts | 37° |
| 2026-04-26 11:05 | 53.51409 | 9.76057 | 2993 ft | 211 kts | 37° |
| 2026-04-26 11:06 | 53.52494 | 9.77576 | 3003 ft | 207 kts | 46° |
| 2026-04-26 11:06 | 53.53145 | 9.78807 | 2997 ft | 208 kts | 50° |
| 2026-04-26 11:06 | 53.54336 | 9.81197 | 2992 ft | 190 kts | 51° |
| 2026-04-26 11:06 | 53.55134 | 9.82809 | 2989 ft | 170 kts | 51° |
| 2026-04-26 11:07 | 53.55871 | 9.84312 | 2808 ft | 168 kts | 51° |
| 2026-04-26 11:07 | 53.56604 | 9.85828 | 2413 ft | 165 kts | 52° |
| 2026-04-26 11:07 | 53.57318 | 9.87321 | 2019 ft | 162 kts | 52° |
| 2026-04-26 11:07 | 53.58013 | 9.88785 | 1672 ft | 156 kts | 52° |
| 2026-04-26 11:08 | 53.58691 | 9.90127 | 1356 ft | 146 kts | 49° |
| 2026-04-26 11:08 | 53.59336 | 9.91376 | 1078 ft | 141 kts | 49° |
| 2026-04-26 11:08 | 53.59968 | 9.92596 | 801 ft | 135 kts | 50° |
| 2026-04-26 11:08 | 53.60557 | 9.93795 | 551 ft | 130 kts | 50° |
| 2026-04-26 11:09 | 53.61109 | 9.94935 | 355 ft | 122 kts | 50° |
| 2026-04-26 11:09 | 53.61639 | 9.95996 | 182 ft | 115 kts | 50° |
| 2026-04-26 11:09 | 53.62144 | 9.97022 | 108 ft | 112 kts | 51° |
| 2026-04-26 11:09 | 53.62598 | 9.97955 | 42 ft | 81 kts | 51° |
| 2026-04-26 11:10 | 53.62788 | 9.98363 | 44 ft | 0 kts | 64° |
| 2026-04-26 11:10 | 53.62773 | 9.98395 | 42 ft | 8 kts | 161° |
| 2026-04-26 11:10 | 53.62707 | 9.98421 | 42 ft | 11 kts | 165° |
| 2026-04-26 11:10 | 53.62690 | 9.98434 | 40 ft | 0 kts | 141° |
| 2026-04-26 11:11 | 53.62688 | 9.98436 | 41 ft | 2 kts | 141° |
| 2026-04-26 11:11 | 53.62668 | 9.98511 | 42 ft | 12 kts | 82° |
| 2026-04-26 11:11 | 53.62740 | 9.98638 | 42 ft | 10 kts | 58° |
| 2026-04-26 11:11 | 53.62754 | 9.98676 | 42 ft | 11 kts | 59° |
| 2026-04-26 11:12 | 53.62817 | 9.98810 | 43 ft | 16 kts | 61° |
| 2026-04-26 11:12 | 53.62884 | 9.98943 | 43 ft | 15 kts | 58° |
| 2026-04-26 11:12 | 53.62937 | 9.99044 | 43 ft | 9 kts | 61° |
| 2026-04-26 11:12 | 53.62976 | 9.99143 | 44 ft | 11 kts | 51° |
| 2026-04-26 11:13 | 53.63031 | 9.99254 | 44 ft | 14 kts | 50° |
| 2026-04-26 11:13 | 53.63079 | 9.99352 | 44 ft | 0 kts | 49° |
| 2026-04-26 11:14 | 53.63081 | 9.99355 | 44 ft | 2 kts | 49° |
| 2026-04-26 11:14 | 53.63121 | 9.99437 | 45 ft | 13 kts | 52° |
| 2026-04-26 11:14 | 53.63183 | 9.99580 | 44 ft | 17 kts | 66° |
| 2026-04-26 11:14 | 53.63211 | 9.99641 | 44 ft | 0 kts | 61° |
| 2026-04-26 11:15 | 53.63212 | 9.99643 | 44 ft | 1 kts | 61° |
| 2026-04-26 11:15 | 53.63242 | 9.99725 | 44 ft | 10 kts | 54° |
| 2026-04-26 11:15 | 53.63293 | 9.99771 | 44 ft | 0 kts | 23° |
| 2026-04-26 11:15 | 53.63303 | 9.99791 | 43 ft | 4 kts | 64° |
| 2026-04-26 11:16 | 53.63270 | 9.99844 | 45 ft | 9 kts | 137° |
| 2026-04-26 11:16 | 53.63254 | 9.99866 | 45 ft | 0 kts | 150° |
| 2026-04-26 11:17 | 53.63247 | 9.99875 | 45 ft | 0 kts | 141° |